sensor_id;sensor_type;location;lat;lon;timestamp;temperature;humidity
51950;DHT22;37974;53.218;6.640;2023-04-06T00:01:02;1.80;99.90
51950;DHT22;37974;53.218;6.640;2023-04-06T00:03:27;1.40;99.90
51950;DHT22;37974;53.218;6.640;2023-04-06T00:05:53;1.60;99.90
51950;DHT22;37974;53.218;6.640;2023-04-06T00:08:19;2.40;99.90
51950;DHT22;37974;53.218;6.640;2023-04-06T00:10:46;2.30;99.90
51950;DHT22;37974;53.218;6.640;2023-04-06T00:13:12;1.40;99.90
51950;DHT22;37974;53.218;6.640;2023-04-06T00:15:38;1.40;99.90
51950;DHT22;37974;53.218;6.640;2023-04-06T00:18:04;1.70;99.90
51950;DHT22;37974;53.218;6.640;2023-04-06T00:20:30;1.30;99.90
51950;DHT22;37974;53.218;6.640;2023-04-06T00:22:56;1.40;99.90
51950;DHT22;37974;53.218;6.640;2023-04-06T00:25:22;1.40;99.90
51950;DHT22;37974;53.218;6.640;2023-04-06T00:27:48;1.40;99.90
51950;DHT22;37974;53.218;6.640;2023-04-06T00:30:13;1.20;99.90
51950;DHT22;37974;53.218;6.640;2023-04-06T00:32:39;1.20;99.90
51950;DHT22;37974;53.218;6.640;2023-04-06T00:35:06;2.30;99.90
51950;DHT22;37974;53.218;6.640;2023-04-06T00:37:32;1.10;99.90
51950;DHT22;37974;53.218;6.640;2023-04-06T00:39:58;1.10;99.90
51950;DHT22;37974;53.218;6.640;2023-04-06T00:42:23;2.10;99.90
51950;DHT22;37974;53.218;6.640;2023-04-06T00:44:53;1.40;99.90
51950;DHT22;37974;53.218;6.640;2023-04-06T00:47:20;1.00;99.90
51950;DHT22;37974;53.218;6.640;2023-04-06T00:49:47;1.00;99.90
51950;DHT22;37974;53.218;6.640;2023-04-06T00:52:12;0.90;99.90
51950;DHT22;37974;53.218;6.640;2023-04-06T00:54:38;0.90;99.90
51950;DHT22;37974;53.218;6.640;2023-04-06T00:57:04;0.90;99.90
51950;DHT22;37974;53.218;6.640;2023-04-06T00:59:30;2.00;99.90
51950;DHT22;37974;53.218;6.640;2023-04-06T01:01:56;0.90;99.90
51950;DHT22;37974;53.218;6.640;2023-04-06T01:04:22;1.80;99.90
51950;DHT22;37974;53.218;6.640;2023-04-06T01:06:49;1.10;99.90
51950;DHT22;37974;53.218;6.640;2023-04-06T01:09:16;0.90;99.90
51950;DHT22;37974;53.218;6.640;2023-04-06T01:11:42;0.80;99.90
51950;DHT22;37974;53.218;6.640;2023-04-06T01:14:07;0.80;99.90
51950;DHT22;37974;53.218;6.640;2023-04-06T01:16:33;1.70;99.90
51950;DHT22;37974;53.218;6.640;2023-04-06T01:18:59;1.30;99.90
51950;DHT22;37974;53.218;6.640;2023-04-06T01:21:26;0.80;99.90
51950;DHT22;37974;53.218;6.640;2023-04-06T01:23:51;1.20;99.90
51950;DHT22;37974;53.218;6.640;2023-04-06T01:26:17;0.70;99.90
51950;DHT22;37974;53.218;6.640;2023-04-06T01:28:43;1.00;99.90
51950;DHT22;37974;53.218;6.640;2023-04-06T01:31:10;0.70;99.90
51950;DHT22;37974;53.218;6.640;2023-04-06T01:33:36;1.10;99.90
51950;DHT22;37974;53.218;6.640;2023-04-06T01:36:03;0.70;99.90
51950;DHT22;37974;53.218;6.640;2023-04-06T01:38:29;0.60;99.90
51950;DHT22;37974;53.218;6.640;2023-04-06T01:40:54;1.00;99.90
51950;DHT22;37974;53.218;6.640;2023-04-06T01:43:20;0.60;99.90
51950;DHT22;37974;53.218;6.640;2023-04-06T01:45:46;1.20;99.90
51950;DHT22;37974;53.218;6.640;2023-04-06T01:48:12;0.60;99.90
51950;DHT22;37974;53.218;6.640;2023-04-06T01:50:37;0.50;99.90
51950;DHT22;37974;53.218;6.640;2023-04-06T01:53:03;1.00;99.90
51950;DHT22;37974;53.218;6.640;2023-04-06T01:55:29;0.50;99.90
51950;DHT22;37974;53.218;6.640;2023-04-06T01:57:54;0.50;99.90
51950;DHT22;37974;53.218;6.640;2023-04-06T02:00:20;0.50;99.90
51950;DHT22;37974;53.218;6.640;2023-04-06T02:02:46;0.40;99.90
51950;DHT22;37974;53.218;6.640;2023-04-06T02:05:12;0.40;99.90
51950;DHT22;37974;53.218;6.640;2023-04-06T02:07:37;0.40;99.90
51950;DHT22;37974;53.218;6.640;2023-04-06T02:10:03;0.40;99.90
51950;DHT22;37974;53.218;6.640;2023-04-06T02:12:29;0.30;99.90
51950;DHT22;37974;53.218;6.640;2023-04-06T02:14:55;0.80;99.90
51950;DHT22;37974;53.218;6.640;2023-04-06T02:17:20;0.60;99.90
51950;DHT22;37974;53.218;6.640;2023-04-06T02:19:46;0.80;99.90
51950;DHT22;37974;53.218;6.640;2023-04-06T02:22:12;0.70;99.90
51950;DHT22;37974;53.218;6.640;2023-04-06T02:24:37;0.30;99.90
51950;DHT22;37974;53.218;6.640;2023-04-06T02:27:03;0.70;99.90
51950;DHT22;37974;53.218;6.640;2023-04-06T02:29:29;0.20;99.90
51950;DHT22;37974;53.218;6.640;2023-04-06T02:31:54;0.20;99.90
51950;DHT22;37974;53.218;6.640;2023-04-06T02:34:20;0.20;99.90
51950;DHT22;37974;53.218;6.640;2023-04-06T02:36:46;0.20;99.90
51950;DHT22;37974;53.218;6.640;2023-04-06T02:39:14;0.30;99.90
51950;DHT22;37974;53.218;6.640;2023-04-06T02:41:39;0.20;99.90
51950;DHT22;37974;53.218;6.640;2023-04-06T02:44:07;0.10;99.90
51950;DHT22;37974;53.218;6.640;2023-04-06T02:46:34;0.10;99.90
51950;DHT22;37974;53.218;6.640;2023-04-06T02:49:00;0.50;99.90
51950;DHT22;37974;53.218;6.640;2023-04-06T02:51:26;0.10;99.90
51950;DHT22;37974;53.218;6.640;2023-04-06T02:53:52;1.10;99.90
51950;DHT22;37974;53.218;6.640;2023-04-06T02:56:18;0.10;99.90
51950;DHT22;37974;53.218;6.640;2023-04-06T02:58:43;0.20;99.90
51950;DHT22;37974;53.218;6.640;2023-04-06T03:01:09;0.00;99.90
51950;DHT22;37974;53.218;6.640;2023-04-06T03:03:35;0.40;99.90
51950;DHT22;37974;53.218;6.640;2023-04-06T03:06:01;0.50;99.90
51950;DHT22;37974;53.218;6.640;2023-04-06T03:08:27;0.80;99.90
51950;DHT22;37974;53.218;6.640;2023-04-06T03:10:52;0.00;99.90
51950;DHT22;37974;53.218;6.640;2023-04-06T03:13:18;-0.10;99.90
51950;DHT22;37974;53.218;6.640;2023-04-06T03:15:43;0.60;99.90
51950;DHT22;37974;53.218;6.640;2023-04-06T03:18:09;-0.10;99.90
51950;DHT22;37974;53.218;6.640;2023-04-06T03:20:35;-0.10;99.90
51950;DHT22;37974;53.218;6.640;2023-04-06T03:23:02;-0.10;99.90
51950;DHT22;37974;53.218;6.640;2023-04-06T03:25:28;-0.10;99.90
51950;DHT22;37974;53.218;6.640;2023-04-06T03:27:55;0.30;99.90
51950;DHT22;37974;53.218;6.640;2023-04-06T03:30:21;-0.30;99.90
51950;DHT22;37974;53.218;6.640;2023-04-06T03:32:47;-0.10;99.90
51950;DHT22;37974;53.218;6.640;2023-04-06T03:35:12;-0.30;99.90
51950;DHT22;37974;53.218;6.640;2023-04-06T03:37:38;-0.30;99.90
51950;DHT22;37974;53.218;6.640;2023-04-06T03:40:04;0.50;99.90
51950;DHT22;37974;53.218;6.640;2023-04-06T03:42:30;-0.40;99.90
51950;DHT22;37974;53.218;6.640;2023-04-06T03:44:56;-0.40;99.90
51950;DHT22;37974;53.218;6.640;2023-04-06T03:47:22;-0.50;99.90
51950;DHT22;37974;53.218;6.640;2023-04-06T03:49:47;-0.50;99.90
51950;DHT22;37974;53.218;6.640;2023-04-06T03:52:13;-0.50;99.90
51950;DHT22;37974;53.218;6.640;2023-04-06T03:54:39;0.50;99.90
51950;DHT22;37974;53.218;6.640;2023-04-06T03:57:05;-0.30;99.90
51950;DHT22;37974;53.218;6.640;2023-04-06T03:59:30;-0.10;99.90
51950;DHT22;37974;53.218;6.640;2023-04-06T04:01:56;-0.60;99.90
51950;DHT22;37974;53.218;6.640;2023-04-06T04:04:22;-0.40;99.90
51950;DHT22;37974;53.218;6.640;2023-04-06T04:06:47;0.20;99.90
51950;DHT22;37974;53.218;6.640;2023-04-06T04:09:13;-0.40;99.90
51950;DHT22;37974;53.218;6.640;2023-04-06T04:11:39;-0.70;99.90
51950;DHT22;37974;53.218;6.640;2023-04-06T04:14:04;-0.70;99.90
51950;DHT22;37974;53.218;6.640;2023-04-06T04:16:30;-0.60;99.90
51950;DHT22;37974;53.218;6.640;2023-04-06T04:18:56;-0.40;99.90
51950;DHT22;37974;53.218;6.640;2023-04-06T04:21:23;-0.80;99.90
51950;DHT22;37974;53.218;6.640;2023-04-06T04:23:49;-0.10;99.90
51950;DHT22;37974;53.218;6.640;2023-04-06T04:26:15;-0.80;99.90
51950;DHT22;37974;53.218;6.640;2023-04-06T04:28:40;-0.40;99.90
51950;DHT22;37974;53.218;6.640;2023-04-06T04:31:06;-0.80;99.90
51950;DHT22;37974;53.218;6.640;2023-04-06T04:33:32;-0.40;99.90
51950;DHT22;37974;53.218;6.640;2023-04-06T04:35:57;-0.90;99.90
51950;DHT22;37974;53.218;6.640;2023-04-06T04:38:23;-0.90;99.90
51950;DHT22;37974;53.218;6.640;2023-04-06T04:40:49;-0.80;99.90
51950;DHT22;37974;53.218;6.640;2023-04-06T04:43:14;-0.70;99.90
51950;DHT22;37974;53.218;6.640;2023-04-06T04:45:40;-0.90;99.90
51950;DHT22;37974;53.218;6.640;2023-04-06T04:48:06;-0.90;99.90
51950;DHT22;37974;53.218;6.640;2023-04-06T04:50:33;-0.10;99.90
51950;DHT22;37974;53.218;6.640;2023-04-06T04:52:58;-0.30;99.90
51950;DHT22;37974;53.218;6.640;2023-04-06T04:55:24;-0.30;99.90
51950;DHT22;37974;53.218;6.640;2023-04-06T04:57:50;-0.20;99.90
51950;DHT22;37974;53.218;6.640;2023-04-06T05:00:15;-0.10;99.90
51950;DHT22;37974;53.218;6.640;2023-04-06T05:02:41;-0.90;99.90
51950;DHT22;37974;53.218;6.640;2023-04-06T05:05:07;0.20;99.90
51950;DHT22;37974;53.218;6.640;2023-04-06T05:07:33;-0.90;99.90
51950;DHT22;37974;53.218;6.640;2023-04-06T05:09:59;-0.80;99.90
51950;DHT22;37974;53.218;6.640;2023-04-06T05:12:25;-0.80;99.90
51950;DHT22;37974;53.218;6.640;2023-04-06T05:14:53;-0.80;99.90
51950;DHT22;37974;53.218;6.640;2023-04-06T05:17:19;-0.80;99.90
51950;DHT22;37974;53.218;6.640;2023-04-06T05:19:45;-0.80;99.90
51950;DHT22;37974;53.218;6.640;2023-04-06T05:22:11;-0.70;99.90
51950;DHT22;37974;53.218;6.640;2023-04-06T05:24:36;-0.30;99.90
51950;DHT22;37974;53.218;6.640;2023-04-06T05:27:02;-0.70;99.90
51950;DHT22;37974;53.218;6.640;2023-04-06T05:29:29;-0.60;99.90
51950;DHT22;37974;53.218;6.640;2023-04-06T05:31:54;0.30;99.90
51950;DHT22;37974;53.218;6.640;2023-04-06T05:34:20;-0.60;99.90
51950;DHT22;37974;53.218;6.640;2023-04-06T05:36:46;-0.50;99.90
51950;DHT22;37974;53.218;6.640;2023-04-06T05:39:12;-0.50;99.90
51950;DHT22;37974;53.218;6.640;2023-04-06T05:41:38;0.10;99.90
51950;DHT22;37974;53.218;6.640;2023-04-06T05:44:04;-0.40;99.90
51950;DHT22;37974;53.218;6.640;2023-04-06T05:46:30;0.80;99.90
51950;DHT22;37974;53.218;6.640;2023-04-06T05:48:55;0.20;99.90
51950;DHT22;37974;53.218;6.640;2023-04-06T05:51:21;-0.20;99.90
51950;DHT22;37974;53.218;6.640;2023-04-06T05:53:47;0.70;99.90
51950;DHT22;37974;53.218;6.640;2023-04-06T05:56:12;0.80;99.90
51950;DHT22;37974;53.218;6.640;2023-04-06T05:58:38;0.00;99.90
51950;DHT22;37974;53.218;6.640;2023-04-06T06:01:04;0.80;99.90
51950;DHT22;37974;53.218;6.640;2023-04-06T06:03:30;0.80;99.90
51950;DHT22;37974;53.218;6.640;2023-04-06T06:06:03;0.80;99.90
51950;DHT22;37974;53.218;6.640;2023-04-06T06:08:30;0.30;99.90
51950;DHT22;37974;53.218;6.640;2023-04-06T06:10:56;0.50;99.90
51950;DHT22;37974;53.218;6.640;2023-04-06T06:13:23;0.60;99.90
51950;DHT22;37974;53.218;6.640;2023-04-06T06:15:49;1.00;99.90
51950;DHT22;37974;53.218;6.640;2023-04-06T06:18:15;0.80;99.90
51950;DHT22;37974;53.218;6.640;2023-04-06T06:20:40;1.50;99.90
51950;DHT22;37974;53.218;6.640;2023-04-06T06:23:06;1.80;99.90
51950;DHT22;37974;53.218;6.640;2023-04-06T06:25:32;1.00;99.90
51950;DHT22;37974;53.218;6.640;2023-04-06T06:27:58;1.10;99.90
51950;DHT22;37974;53.218;6.640;2023-04-06T06:30:25;1.20;99.90
51950;DHT22;37974;53.218;6.640;2023-04-06T06:32:51;1.30;99.90
51950;DHT22;37974;53.218;6.640;2023-04-06T06:35:17;2.50;99.90
51950;DHT22;37974;53.218;6.640;2023-04-06T06:37:43;2.30;99.90
51950;DHT22;37974;53.218;6.640;2023-04-06T06:40:09;2.10;99.90
51950;DHT22;37974;53.218;6.640;2023-04-06T06:42:36;1.60;99.90
51950;DHT22;37974;53.218;6.640;2023-04-06T06:45:06;1.70;99.90
51950;DHT22;37974;53.218;6.640;2023-04-06T06:47:32;1.80;99.90
51950;DHT22;37974;53.218;6.640;2023-04-06T06:49:57;2.60;99.90
51950;DHT22;37974;53.218;6.640;2023-04-06T06:52:23;2.00;99.90
51950;DHT22;37974;53.218;6.640;2023-04-06T06:54:49;2.10;99.90
51950;DHT22;37974;53.218;6.640;2023-04-06T06:57:15;2.20;99.90
51950;DHT22;37974;53.218;6.640;2023-04-06T06:59:41;2.30;99.90
51950;DHT22;37974;53.218;6.640;2023-04-06T07:02:06;3.00;99.90
51950;DHT22;37974;53.218;6.640;2023-04-06T07:04:32;3.00;99.90
51950;DHT22;37974;53.218;6.640;2023-04-06T07:07:06;2.60;99.90
51950;DHT22;37974;53.218;6.640;2023-04-06T07:09:31;2.70;99.90
51950;DHT22;37974;53.218;6.640;2023-04-06T07:11:57;2.90;99.90
51950;DHT22;37974;53.218;6.640;2023-04-06T07:14:23;2.90;99.90
51950;DHT22;37974;53.218;6.640;2023-04-06T07:16:49;4.00;99.90
51950;DHT22;37974;53.218;6.640;2023-04-06T07:19:15;3.10;99.90
51950;DHT22;37974;53.218;6.640;2023-04-06T07:21:41;3.20;99.90
51950;DHT22;37974;53.218;6.640;2023-04-06T07:24:07;3.30;99.90
51950;DHT22;37974;53.218;6.640;2023-04-06T07:26:32;3.40;99.90
51950;DHT22;37974;53.218;6.640;2023-04-06T07:28:58;3.50;99.90
51950;DHT22;37974;53.218;6.640;2023-04-06T07:31:24;3.60;99.90
51950;DHT22;37974;53.218;6.640;2023-04-06T07:33:50;3.70;99.90
51950;DHT22;37974;53.218;6.640;2023-04-06T07:36:15;4.50;99.90
51950;DHT22;37974;53.218;6.640;2023-04-06T07:38:41;3.90;99.90
51950;DHT22;37974;53.218;6.640;2023-04-06T07:41:07;4.10;99.90
51950;DHT22;37974;53.218;6.640;2023-04-06T07:43:32;4.20;99.90
51950;DHT22;37974;53.218;6.640;2023-04-06T07:45:58;4.20;99.90
51950;DHT22;37974;53.218;6.640;2023-04-06T07:48:26;4.40;99.90
51950;DHT22;37974;53.218;6.640;2023-04-06T07:50:51;4.50;99.90
51950;DHT22;37974;53.218;6.640;2023-04-06T07:53:17;4.70;99.90
51950;DHT22;37974;53.218;6.640;2023-04-06T07:55:43;4.70;99.90
51950;DHT22;37974;53.218;6.640;2023-04-06T07:58:08;4.90;99.90
51950;DHT22;37974;53.218;6.640;2023-04-06T08:00:34;6.10;99.90
51950;DHT22;37974;53.218;6.640;2023-04-06T08:03:00;5.10;99.90
51950;DHT22;37974;53.218;6.640;2023-04-06T08:05:26;5.30;99.90
51950;DHT22;37974;53.218;6.640;2023-04-06T08:07:52;5.70;99.90
51950;DHT22;37974;53.218;6.640;2023-04-06T08:10:17;5.50;99.90
51950;DHT22;37974;53.218;6.640;2023-04-06T08:12:43;5.70;99.90
51950;DHT22;37974;53.218;6.640;2023-04-06T08:15:09;5.70;99.90
51950;DHT22;37974;53.218;6.640;2023-04-06T08:17:35;5.80;99.90
51950;DHT22;37974;53.218;6.640;2023-04-06T08:20:01;5.90;99.90
51950;DHT22;37974;53.218;6.640;2023-04-06T08:22:28;6.00;99.90
51950;DHT22;37974;53.218;6.640;2023-04-06T08:24:54;6.10;99.90
51950;DHT22;37974;53.218;6.640;2023-04-06T08:27:20;6.20;99.90
51950;DHT22;37974;53.218;6.640;2023-04-06T08:29:46;6.40;99.90
51950;DHT22;37974;53.218;6.640;2023-04-06T08:32:11;6.60;99.90
51950;DHT22;37974;53.218;6.640;2023-04-06T08:34:37;6.60;99.90
51950;DHT22;37974;53.218;6.640;2023-04-06T08:37:03;6.90;99.90
51950;DHT22;37974;53.218;6.640;2023-04-06T08:39:28;6.80;99.90
51950;DHT22;37974;53.218;6.640;2023-04-06T08:41:56;6.90;99.90
51950;DHT22;37974;53.218;6.640;2023-04-06T08:44:23;7.10;99.90
51950;DHT22;37974;53.218;6.640;2023-04-06T08:46:49;7.10;99.90
51950;DHT22;37974;53.218;6.640;2023-04-06T08:49:16;7.20;99.90
51950;DHT22;37974;53.218;6.640;2023-04-06T08:51:42;7.30;99.90
51950;DHT22;37974;53.218;6.640;2023-04-06T08:54:08;7.50;99.90
51950;DHT22;37974;53.218;6.640;2023-04-06T08:56:37;7.60;99.90
51950;DHT22;37974;53.218;6.640;2023-04-06T08:59:04;7.70;99.90
51950;DHT22;37974;53.218;6.640;2023-04-06T09:01:33;7.80;99.90
51950;DHT22;37974;53.218;6.640;2023-04-06T09:04:02;7.90;99.90
51950;DHT22;37974;53.218;6.640;2023-04-06T09:06:30;8.10;99.90
51950;DHT22;37974;53.218;6.640;2023-04-06T09:08:57;8.60;99.90
51950;DHT22;37974;53.218;6.640;2023-04-06T09:11:23;8.40;99.90
51950;DHT22;37974;53.218;6.640;2023-04-06T09:13:52;8.50;99.90
51950;DHT22;37974;53.218;6.640;2023-04-06T09:16:18;8.70;99.90
51950;DHT22;37974;53.218;6.640;2023-04-06T09:18:45;8.80;99.90
51950;DHT22;37974;53.218;6.640;2023-04-06T09:21:11;9.00;99.90
51950;DHT22;37974;53.218;6.640;2023-04-06T09:23:38;9.30;99.90
51950;DHT22;37974;53.218;6.640;2023-04-06T09:26:11;9.30;99.90
51950;DHT22;37974;53.218;6.640;2023-04-06T09:28:45;9.40;99.90
51950;DHT22;37974;53.218;6.640;2023-04-06T09:31:14;9.60;99.90
51950;DHT22;37974;53.218;6.640;2023-04-06T09:33:42;9.70;99.90
51950;DHT22;37974;53.218;6.640;2023-04-06T09:36:08;9.90;99.90
51950;DHT22;37974;53.218;6.640;2023-04-06T09:38:38;9.90;99.90
51950;DHT22;37974;53.218;6.640;2023-04-06T09:41:04;10.10;99.90
51950;DHT22;37974;53.218;6.640;2023-04-06T09:43:30;10.20;99.90
51950;DHT22;37974;53.218;6.640;2023-04-06T09:45:56;10.40;99.90
51950;DHT22;37974;53.218;6.640;2023-04-06T09:48:24;10.50;99.90
51950;DHT22;37974;53.218;6.640;2023-04-06T09:50:53;10.60;99.90
51950;DHT22;37974;53.218;6.640;2023-04-06T09:53:25;10.60;99.90
51950;DHT22;37974;53.218;6.640;2023-04-06T09:55:55;10.60;99.90
51950;DHT22;37974;53.218;6.640;2023-04-06T09:58:23;10.60;99.90
51950;DHT22;37974;53.218;6.640;2023-04-06T10:01:11;10.60;99.90
51950;DHT22;37974;53.218;6.640;2023-04-06T10:06:05;10.60;99.90
51950;DHT22;37974;53.218;6.640;2023-04-06T10:08:37;10.60;99.90
51950;DHT22;37974;53.218;6.640;2023-04-06T10:11:07;10.50;99.90
51950;DHT22;37974;53.218;6.640;2023-04-06T10:13:33;10.60;99.90
51950;DHT22;37974;53.218;6.640;2023-04-06T10:16:00;10.60;99.90
51950;DHT22;37974;53.218;6.640;2023-04-06T10:18:27;10.70;99.90
51950;DHT22;37974;53.218;6.640;2023-04-06T10:20:56;10.70;99.90
51950;DHT22;37974;53.218;6.640;2023-04-06T10:23:32;10.70;99.90
51950;DHT22;37974;53.218;6.640;2023-04-06T10:26:00;10.70;99.90
51950;DHT22;37974;53.218;6.640;2023-04-06T10:28:31;10.70;99.90
51950;DHT22;37974;53.218;6.640;2023-04-06T10:30:59;10.90;99.90
51950;DHT22;37974;53.218;6.640;2023-04-06T10:33:25;11.00;99.90
51950;DHT22;37974;53.218;6.640;2023-04-06T10:35:51;11.20;99.90
51950;DHT22;37974;53.218;6.640;2023-04-06T10:38:17;11.30;99.90
51950;DHT22;37974;53.218;6.640;2023-04-06T10:40:47;11.30;99.90
51950;DHT22;37974;53.218;6.640;2023-04-06T10:43:19;11.40;99.90
51950;DHT22;37974;53.218;6.640;2023-04-06T10:45:55;11.50;99.90
51950;DHT22;37974;53.218;6.640;2023-04-06T10:48:21;11.60;99.90
51950;DHT22;37974;53.218;6.640;2023-04-06T10:50:49;11.70;99.90
51950;DHT22;37974;53.218;6.640;2023-04-06T10:55:49;11.80;99.90
51950;DHT22;37974;53.218;6.640;2023-04-06T10:58:15;11.80;99.90
51950;DHT22;37974;53.218;6.640;2023-04-06T11:00:45;11.90;99.90
51950;DHT22;37974;53.218;6.640;2023-04-06T11:03:11;11.90;99.90
51950;DHT22;37974;53.218;6.640;2023-04-06T11:05:37;12.00;99.90
51950;DHT22;37974;53.218;6.640;2023-04-06T11:08:03;12.10;99.90
51950;DHT22;37974;53.218;6.640;2023-04-06T11:10:28;12.10;99.90
51950;DHT22;37974;53.218;6.640;2023-04-06T11:12:56;12.20;99.90
51950;DHT22;37974;53.218;6.640;2023-04-06T11:15:22;12.10;99.90
51950;DHT22;37974;53.218;6.640;2023-04-06T11:17:48;12.00;99.90
51950;DHT22;37974;53.218;6.640;2023-04-06T11:20:15;12.00;99.90
51950;DHT22;37974;53.218;6.640;2023-04-06T11:22:49;12.00;99.90
51950;DHT22;37974;53.218;6.640;2023-04-06T11:25:15;12.10;99.90
51950;DHT22;37974;53.218;6.640;2023-04-06T11:27:42;12.10;99.90
51950;DHT22;37974;53.218;6.640;2023-04-06T11:30:09;12.20;99.90
51950;DHT22;37974;53.218;6.640;2023-04-06T11:32:41;12.40;99.90
51950;DHT22;37974;53.218;6.640;2023-04-06T11:35:12;12.50;99.90
51950;DHT22;37974;53.218;6.640;2023-04-06T11:37:44;12.50;99.90
51950;DHT22;37974;53.218;6.640;2023-04-06T11:40:10;12.60;99.90
51950;DHT22;37974;53.218;6.640;2023-04-06T11:42:36;12.60;99.70
51950;DHT22;37974;53.218;6.640;2023-04-06T11:45:02;12.70;99.50
51950;DHT22;37974;53.218;6.640;2023-04-06T11:47:32;12.70;99.20
51950;DHT22;37974;53.218;6.640;2023-04-06T11:50:06;12.80;99.50
51950;DHT22;37974;53.218;6.640;2023-04-06T11:52:33;12.90;99.30
51950;DHT22;37974;53.218;6.640;2023-04-06T11:54:58;13.10;99.70
51950;DHT22;37974;53.218;6.640;2023-04-06T11:57:35;13.20;99.20
51950;DHT22;37974;53.218;6.640;2023-04-06T12:00:01;13.20;98.80
51950;DHT22;37974;53.218;6.640;2023-04-06T12:02:26;13.30;98.60
51950;DHT22;37974;53.218;6.640;2023-04-06T12:04:52;13.40;98.60
51950;DHT22;37974;53.218;6.640;2023-04-06T12:07:18;13.50;98.00
51950;DHT22;37974;53.218;6.640;2023-04-06T12:09:43;13.50;98.10
51950;DHT22;37974;53.218;6.640;2023-04-06T12:12:09;13.60;98.40
51950;DHT22;37974;53.218;6.640;2023-04-06T12:14:35;13.50;98.10
51950;DHT22;37974;53.218;6.640;2023-04-06T12:17:01;13.50;98.10
51950;DHT22;37974;53.218;6.640;2023-04-06T12:19:26;13.40;97.90
51950;DHT22;37974;53.218;6.640;2023-04-06T12:21:53;13.40;97.90
51950;DHT22;37974;53.218;6.640;2023-04-06T12:24:19;13.40;97.80
51950;DHT22;37974;53.218;6.640;2023-04-06T12:26:46;13.30;96.90
51950;DHT22;37974;53.218;6.640;2023-04-06T12:29:15;13.10;96.20
51950;DHT22;37974;53.218;6.640;2023-04-06T12:31:41;13.10;96.70
51950;DHT22;37974;53.218;6.640;2023-04-06T12:34:08;13.00;96.50
51950;DHT22;37974;53.218;6.640;2023-04-06T12:36:34;13.00;96.20
51950;DHT22;37974;53.218;6.640;2023-04-06T12:39:00;12.90;96.40
51950;DHT22;37974;53.218;6.640;2023-04-06T12:41:27;13.00;96.40
51950;DHT22;37974;53.218;6.640;2023-04-06T12:43:53;13.00;96.40
51950;DHT22;37974;53.218;6.640;2023-04-06T12:46:19;13.00;96.90
51950;DHT22;37974;53.218;6.640;2023-04-06T12:48:45;13.00;96.70
51950;DHT22;37974;53.218;6.640;2023-04-06T12:51:11;13.00;96.60
51950;DHT22;37974;53.218;6.640;2023-04-06T12:53:37;12.90;96.30
51950;DHT22;37974;53.218;6.640;2023-04-06T12:56:12;12.80;96.20
51950;DHT22;37974;53.218;6.640;2023-04-06T12:58:38;12.80;96.40
51950;DHT22;37974;53.218;6.640;2023-04-06T13:01:07;12.80;96.10
51950;DHT22;37974;53.218;6.640;2023-04-06T13:03:33;12.80;95.90
51950;DHT22;37974;53.218;6.640;2023-04-06T13:06:00;12.80;96.00
51950;DHT22;37974;53.218;6.640;2023-04-06T13:08:26;12.70;96.00
51950;DHT22;37974;53.218;6.640;2023-04-06T13:10:53;12.70;95.80
51950;DHT22;37974;53.218;6.640;2023-04-06T13:13:23;12.80;95.70
51950;DHT22;37974;53.218;6.640;2023-04-06T13:15:49;12.80;95.80
51950;DHT22;37974;53.218;6.640;2023-04-06T13:18:16;12.70;95.80
51950;DHT22;37974;53.218;6.640;2023-04-06T13:20:42;12.70;95.50
51950;DHT22;37974;53.218;6.640;2023-04-06T13:23:08;12.70;95.30
51950;DHT22;37974;53.218;6.640;2023-04-06T13:25:34;12.70;95.10
51950;DHT22;37974;53.218;6.640;2023-04-06T13:28:00;12.60;95.30
51950;DHT22;37974;53.218;6.640;2023-04-06T13:30:26;12.60;95.30
51950;DHT22;37974;53.218;6.640;2023-04-06T13:32:52;12.70;95.20
51950;DHT22;37974;53.218;6.640;2023-04-06T13:35:18;12.60;95.20
51950;DHT22;37974;53.218;6.640;2023-04-06T13:37:44;12.60;95.20
51950;DHT22;37974;53.218;6.640;2023-04-06T13:40:10;12.70;95.30
51950;DHT22;37974;53.218;6.640;2023-04-06T13:42:36;12.70;95.50
51950;DHT22;37974;53.218;6.640;2023-04-06T13:45:04;12.70;95.40
51950;DHT22;37974;53.218;6.640;2023-04-06T13:47:29;12.70;95.40
51950;DHT22;37974;53.218;6.640;2023-04-06T13:49:55;12.70;95.20
51950;DHT22;37974;53.218;6.640;2023-04-06T13:52:21;12.70;94.40
51950;DHT22;37974;53.218;6.640;2023-04-06T13:54:49;12.60;94.60
51950;DHT22;37974;53.218;6.640;2023-04-06T13:57:15;12.70;94.80
51950;DHT22;37974;53.218;6.640;2023-04-06T13:59:42;12.70;95.00
51950;DHT22;37974;53.218;6.640;2023-04-06T14:02:09;12.70;94.90
51950;DHT22;37974;53.218;6.640;2023-04-06T14:04:35;12.70;94.90
51950;DHT22;37974;53.218;6.640;2023-04-06T14:07:02;12.70;95.00
51950;DHT22;37974;53.218;6.640;2023-04-06T14:09:28;12.70;95.00
51950;DHT22;37974;53.218;6.640;2023-04-06T14:11:55;12.70;95.00
51950;DHT22;37974;53.218;6.640;2023-04-06T14:14:21;12.70;94.90
51950;DHT22;37974;53.218;6.640;2023-04-06T14:16:47;12.70;94.80
51950;DHT22;37974;53.218;6.640;2023-04-06T14:19:49;12.70;95.10
51950;DHT22;37974;53.218;6.640;2023-04-06T14:22:16;12.70;95.50
51950;DHT22;37974;53.218;6.640;2023-04-06T14:24:43;12.70;96.00
51950;DHT22;37974;53.218;6.640;2023-04-06T14:27:08;12.70;96.10
51950;DHT22;37974;53.218;6.640;2023-04-06T14:29:34;12.70;96.50
51950;DHT22;37974;53.218;6.640;2023-04-06T14:32:00;12.60;96.50
51950;DHT22;37974;53.218;6.640;2023-04-06T14:34:26;12.60;96.70
51950;DHT22;37974;53.218;6.640;2023-04-06T14:36:52;12.50;96.70
51950;DHT22;37974;53.218;6.640;2023-04-06T14:39:18;12.50;96.80
51950;DHT22;37974;53.218;6.640;2023-04-06T14:41:44;12.50;97.00
51950;DHT22;37974;53.218;6.640;2023-04-06T14:44:10;12.40;96.70
51950;DHT22;37974;53.218;6.640;2023-04-06T14:46:37;12.40;96.80
51950;DHT22;37974;53.218;6.640;2023-04-06T14:49:03;12.40;96.90
51950;DHT22;37974;53.218;6.640;2023-04-06T14:51:30;12.40;96.80
51950;DHT22;37974;53.218;6.640;2023-04-06T14:53:56;12.30;96.90
51950;DHT22;37974;53.218;6.640;2023-04-06T14:56:23;12.20;97.10
51950;DHT22;37974;53.218;6.640;2023-04-06T14:58:50;12.10;97.60
51950;DHT22;37974;53.218;6.640;2023-04-06T15:01:18;12.10;97.90
51950;DHT22;37974;53.218;6.640;2023-04-06T15:03:44;12.00;98.10
51950;DHT22;37974;53.218;6.640;2023-04-06T15:06:13;11.90;98.20
51950;DHT22;37974;53.218;6.640;2023-04-06T15:08:41;11.80;98.40
51950;DHT22;37974;53.218;6.640;2023-04-06T15:11:07;11.80;98.80
51950;DHT22;37974;53.218;6.640;2023-04-06T15:13:32;11.80;99.10
51950;DHT22;37974;53.218;6.640;2023-04-06T15:15:58;11.70;99.20
51950;DHT22;37974;53.218;6.640;2023-04-06T15:18:24;11.70;99.20
51950;DHT22;37974;53.218;6.640;2023-04-06T15:20:49;11.50;99.20
51950;DHT22;37974;53.218;6.640;2023-04-06T15:23:16;11.40;99.60
51950;DHT22;37974;53.218;6.640;2023-04-06T15:25:41;11.40;99.80
51950;DHT22;37974;53.218;6.640;2023-04-06T15:28:07;11.30;99.90
51950;DHT22;37974;53.218;6.640;2023-04-06T15:30:34;11.30;99.90
51950;DHT22;37974;53.218;6.640;2023-04-06T15:33:00;11.20;99.90
51950;DHT22;37974;53.218;6.640;2023-04-06T15:35:27;11.20;99.90
51950;DHT22;37974;53.218;6.640;2023-04-06T15:37:55;11.10;99.90